sensor_id;sensor_type;location;lat;lon;timestamp;P1;durP1;ratioP1;P2;durP2;ratioP2
20056;SDS011;10189;49.546;7.906;2022-07-23T00:00:34;16.58;;;12.15;;
20056;SDS011;10189;49.546;7.906;2022-07-23T00:03:00;15.77;;;11.75;;
20056;SDS011;10189;49.546;7.906;2022-07-23T00:05:26;13.23;;;11.93;;
20056;SDS011;10189;49.546;7.906;2022-07-23T00:07:52;14.68;;;11.88;;
20056;SDS011;10189;49.546;7.906;2022-07-23T00:10:18;12.88;;;11.77;;
20056;SDS011;10189;49.546;7.906;2022-07-23T00:12:44;12.90;;;11.60;;
20056;SDS011;10189;49.546;7.906;2022-07-23T00:15:10;15.00;;;12.10;;
20056;SDS011;10189;49.546;7.906;2022-07-23T00:17:36;13.15;;;11.30;;
20056;SDS011;10189;49.546;7.906;2022-07-23T00:20:02;13.43;;;11.93;;
20056;SDS011;10189;49.546;7.906;2022-07-23T00:22:29;14.18;;;12.30;;
20056;SDS011;10189;49.546;7.906;2022-07-23T00:24:56;12.65;;;11.38;;
20056;SDS011;10189;49.546;7.906;2022-07-23T00:27:22;13.13;;;11.93;;
20056;SDS011;10189;49.546;7.906;2022-07-23T00:29:48;13.45;;;12.15;;
20056;SDS011;10189;49.546;7.906;2022-07-23T00:32:14;12.57;;;11.30;;
20056;SDS011;10189;49.546;7.906;2022-07-23T00:34:40;14.38;;;12.13;;
20056;SDS011;10189;49.546;7.906;2022-07-23T00:37:06;13.15;;;11.85;;
20056;SDS011;10189;49.546;7.906;2022-07-23T00:39:32;13.77;;;12.15;;
20056;SDS011;10189;49.546;7.906;2022-07-23T00:41:58;14.13;;;11.65;;
20056;SDS011;10189;49.546;7.906;2022-07-23T00:44:25;13.05;;;11.70;;
20056;SDS011;10189;49.546;7.906;2022-07-23T00:46:54;14.98;;;12.52;;
20056;SDS011;10189;49.546;7.906;2022-07-23T00:49:26;13.95;;;12.35;;
20056;SDS011;10189;49.546;7.906;2022-07-23T00:51:55;13.48;;;12.18;;
20056;SDS011;10189;49.546;7.906;2022-07-23T00:54:23;12.45;;;11.30;;
20056;SDS011;10189;49.546;7.906;2022-07-23T00:56:51;13.55;;;12.13;;
20056;SDS011;10189;49.546;7.906;2022-07-23T00:59:17;13.68;;;12.38;;
20056;SDS011;10189;49.546;7.906;2022-07-23T01:01:43;14.80;;;12.18;;
20056;SDS011;10189;49.546;7.906;2022-07-23T01:04:10;13.23;;;11.82;;
20056;SDS011;10189;49.546;7.906;2022-07-23T01:06:38;13.07;;;11.68;;
20056;SDS011;10189;49.546;7.906;2022-07-23T01:09:05;12.55;;;11.25;;
20056;SDS011;10189;49.546;7.906;2022-07-23T01:11:33;12.05;;;10.85;;
20056;SDS011;10189;49.546;7.906;2022-07-23T01:14:08;12.65;;;11.43;;
20056;SDS011;10189;49.546;7.906;2022-07-23T01:16:43;12.35;;;11.15;;
20056;SDS011;10189;49.546;7.906;2022-07-23T01:19:11;13.13;;;11.07;;
20056;SDS011;10189;49.546;7.906;2022-07-23T01:21:41;13.52;;;11.32;;
20056;SDS011;10189;49.546;7.906;2022-07-23T01:24:12;12.02;;;10.70;;
20056;SDS011;10189;49.546;7.906;2022-07-23T01:26:47;12.88;;;11.40;;
20056;SDS011;10189;49.546;7.906;2022-07-23T01:29:14;14.10;;;11.40;;
20056;SDS011;10189;49.546;7.906;2022-07-23T01:31:41;11.27;;;10.20;;
20056;SDS011;10189;49.546;7.906;2022-07-23T01:34:08;12.55;;;11.32;;
20056;SDS011;10189;49.546;7.906;2022-07-23T01:36:35;11.75;;;10.55;;
20056;SDS011;10189;49.546;7.906;2022-07-23T01:39:03;11.93;;;10.57;;
20056;SDS011;10189;49.546;7.906;2022-07-23T01:41:31;14.57;;;11.52;;
20056;SDS011;10189;49.546;7.906;2022-07-23T01:43:57;12.35;;;11.23;;
20056;SDS011;10189;49.546;7.906;2022-07-23T01:46:25;12.23;;;10.95;;
20056;SDS011;10189;49.546;7.906;2022-07-23T01:48:51;15.32;;;11.07;;
20056;SDS011;10189;49.546;7.906;2022-07-23T01:51:40;11.77;;;10.50;;
20056;SDS011;10189;49.546;7.906;2022-07-23T01:54:29;11.82;;;10.68;;
20056;SDS011;10189;49.546;7.906;2022-07-23T01:56:58;13.02;;;11.55;;
20056;SDS011;10189;49.546;7.906;2022-07-23T01:59:25;11.82;;;10.73;;
20056;SDS011;10189;49.546;7.906;2022-07-23T02:01:52;12.45;;;11.05;;
20056;SDS011;10189;49.546;7.906;2022-07-23T02:04:19;12.25;;;11.07;;
20056;SDS011;10189;49.546;7.906;2022-07-23T02:06:47;12.65;;;11.35;;
20056;SDS011;10189;49.546;7.906;2022-07-23T02:09:14;11.43;;;10.32;;
20056;SDS011;10189;49.546;7.906;2022-07-23T02:11:40;12.27;;;11.13;;
20056;SDS011;10189;49.546;7.906;2022-07-23T02:14:07;13.18;;;11.90;;
20056;SDS011;10189;49.546;7.906;2022-07-23T02:16:33;12.95;;;11.35;;
20056;SDS011;10189;49.546;7.906;2022-07-23T02:19:01;12.40;;;11.02;;
20056;SDS011;10189;49.546;7.906;2022-07-23T02:21:28;11.85;;;10.68;;
20056;SDS011;10189;49.546;7.906;2022-07-23T02:23:54;12.73;;;11.52;;
20056;SDS011;10189;49.546;7.906;2022-07-23T02:26:20;13.30;;;12.02;;
20056;SDS011;10189;49.546;7.906;2022-07-23T02:28:48;13.75;;;12.40;;
20056;SDS011;10189;49.546;7.906;2022-07-23T02:31:14;13.68;;;12.27;;
20056;SDS011;10189;49.546;7.906;2022-07-23T02:33:40;13.52;;;12.23;;
20056;SDS011;10189;49.546;7.906;2022-07-23T02:36:06;13.70;;;12.30;;
20056;SDS011;10189;49.546;7.906;2022-07-23T02:38:32;15.35;;;12.45;;
20056;SDS011;10189;49.546;7.906;2022-07-23T02:40:58;13.50;;;12.25;;
20056;SDS011;10189;49.546;7.906;2022-07-23T02:43:24;14.85;;;11.38;;
20056;SDS011;10189;49.546;7.906;2022-07-23T02:45:50;13.60;;;12.20;;
20056;SDS011;10189;49.546;7.906;2022-07-23T02:48:16;13.27;;;12.05;;
20056;SDS011;10189;49.546;7.906;2022-07-23T02:50:44;13.55;;;12.23;;
20056;SDS011;10189;49.546;7.906;2022-07-23T02:53:13;13.60;;;12.25;;
20056;SDS011;10189;49.546;7.906;2022-07-23T02:55:40;14.00;;;12.45;;
20056;SDS011;10189;49.546;7.906;2022-07-23T02:58:06;14.35;;;11.80;;
20056;SDS011;10189;49.546;7.906;2022-07-23T03:00:32;13.02;;;11.73;;
20056;SDS011;10189;49.546;7.906;2022-07-23T03:02:58;12.73;;;11.23;;
20056;SDS011;10189;49.546;7.906;2022-07-23T03:05:25;12.50;;;11.25;;
20056;SDS011;10189;49.546;7.906;2022-07-23T03:07:51;12.98;;;11.60;;
20056;SDS011;10189;49.546;7.906;2022-07-23T03:10:16;13.13;;;11.68;;
20056;SDS011;10189;49.546;7.906;2022-07-23T03:12:43;12.65;;;11.35;;
20056;SDS011;10189;49.546;7.906;2022-07-23T03:15:09;12.43;;;11.15;;
20056;SDS011;10189;49.546;7.906;2022-07-23T03:17:35;12.30;;;11.10;;
20056;SDS011;10189;49.546;7.906;2022-07-23T03:20:02;11.95;;;10.75;;
20056;SDS011;10189;49.546;7.906;2022-07-23T03:22:28;11.95;;;10.75;;
20056;SDS011;10189;49.546;7.906;2022-07-23T03:24:54;12.93;;;11.70;;
20056;SDS011;10189;49.546;7.906;2022-07-23T03:27:28;12.50;;;11.20;;
20056;SDS011;10189;49.546;7.906;2022-07-23T03:29:56;12.35;;;11.13;;
20056;SDS011;10189;49.546;7.906;2022-07-23T03:32:24;13.18;;;11.85;;
20056;SDS011;10189;49.546;7.906;2022-07-23T03:34:51;12.57;;;11.35;;
20056;SDS011;10189;49.546;7.906;2022-07-23T03:37:18;13.18;;;11.77;;
20056;SDS011;10189;49.546;7.906;2022-07-23T03:39:45;13.07;;;11.77;;
20056;SDS011;10189;49.546;7.906;2022-07-23T03:42:11;12.45;;;11.25;;
20056;SDS011;10189;49.546;7.906;2022-07-23T03:44:37;13.00;;;11.60;;
20056;SDS011;10189;49.546;7.906;2022-07-23T03:47:04;12.57;;;11.27;;
20056;SDS011;10189;49.546;7.906;2022-07-23T03:49:31;12.63;;;11.32;;
20056;SDS011;10189;49.546;7.906;2022-07-23T03:51:58;14.07;;;12.60;;
20056;SDS011;10189;49.546;7.906;2022-07-23T03:54:25;14.63;;;12.35;;
20056;SDS011;10189;49.546;7.906;2022-07-23T03:56:51;14.77;;;13.20;;
20056;SDS011;10189;49.546;7.906;2022-07-23T03:59:17;14.38;;;12.38;;
20056;SDS011;10189;49.546;7.906;2022-07-23T04:01:43;13.55;;;12.25;;
20056;SDS011;10189;49.546;7.906;2022-07-23T04:04:10;14.23;;;12.77;;
20056;SDS011;10189;49.546;7.906;2022-07-23T04:06:39;13.68;;;12.27;;
20056;SDS011;10189;49.546;7.906;2022-07-23T04:09:05;13.82;;;12.43;;
20056;SDS011;10189;49.546;7.906;2022-07-23T04:11:32;14.02;;;12.65;;
20056;SDS011;10189;49.546;7.906;2022-07-23T04:13:58;14.65;;;12.88;;
20056;SDS011;10189;49.546;7.906;2022-07-23T04:16:24;15.25;;;13.70;;
20056;SDS011;10189;49.546;7.906;2022-07-23T04:18:49;16.90;;;13.57;;
20056;SDS011;10189;49.546;7.906;2022-07-23T04:21:19;15.00;;;13.55;;
20056;SDS011;10189;49.546;7.906;2022-07-23T04:23:46;14.63;;;13.10;;
20056;SDS011;10189;49.546;7.906;2022-07-23T04:26:12;14.38;;;12.88;;
20056;SDS011;10189;49.546;7.906;2022-07-23T04:28:38;16.17;;;13.65;;
20056;SDS011;10189;49.546;7.906;2022-07-23T04:31:04;14.25;;;12.85;;
20056;SDS011;10189;49.546;7.906;2022-07-23T04:33:32;14.00;;;12.48;;
20056;SDS011;10189;49.546;7.906;2022-07-23T04:36:03;15.13;;;13.05;;
20056;SDS011;10189;49.546;7.906;2022-07-23T04:38:29;13.80;;;12.40;;
20056;SDS011;10189;49.546;7.906;2022-07-23T04:40:59;15.23;;;13.52;;
20056;SDS011;10189;49.546;7.906;2022-07-23T04:43:26;14.85;;;13.35;;
20056;SDS011;10189;49.546;7.906;2022-07-23T04:45:53;13.75;;;12.43;;
20056;SDS011;10189;49.546;7.906;2022-07-23T04:48:19;13.95;;;12.65;;
20056;SDS011;10189;49.546;7.906;2022-07-23T04:50:48;14.98;;;13.18;;
20056;SDS011;10189;49.546;7.906;2022-07-23T04:53:17;15.05;;;13.55;;
20056;SDS011;10189;49.546;7.906;2022-07-23T04:55:46;15.30;;;13.70;;
20056;SDS011;10189;49.546;7.906;2022-07-23T04:58:12;14.77;;;13.13;;
20056;SDS011;10189;49.546;7.906;2022-07-23T05:00:38;14.35;;;12.88;;
20056;SDS011;10189;49.546;7.906;2022-07-23T05:03:04;14.57;;;13.10;;
20056;SDS011;10189;49.546;7.906;2022-07-23T05:05:31;15.10;;;13.57;;
20056;SDS011;10189;49.546;7.906;2022-07-23T05:08:05;14.80;;;13.40;;
20056;SDS011;10189;49.546;7.906;2022-07-23T05:10:35;14.77;;;12.80;;
20056;SDS011;10189;49.546;7.906;2022-07-23T05:13:02;15.50;;;13.93;;
20056;SDS011;10189;49.546;7.906;2022-07-23T05:15:28;15.52;;;13.45;;
20056;SDS011;10189;49.546;7.906;2022-07-23T05:17:54;13.68;;;12.32;;
20056;SDS011;10189;49.546;7.906;2022-07-23T05:20:20;15.15;;;13.65;;
20056;SDS011;10189;49.546;7.906;2022-07-23T05:22:46;15.40;;;13.80;;
20056;SDS011;10189;49.546;7.906;2022-07-23T05:25:12;15.45;;;13.82;;
20056;SDS011;10189;49.546;7.906;2022-07-23T05:27:38;13.75;;;12.27;;
20056;SDS011;10189;49.546;7.906;2022-07-23T05:30:04;15.18;;;12.50;;
20056;SDS011;10189;49.546;7.906;2022-07-23T05:32:34;14.00;;;12.60;;
20056;SDS011;10189;49.546;7.906;2022-07-23T05:35:10;13.45;;;12.13;;
20056;SDS011;10189;49.546;7.906;2022-07-23T05:37:40;13.77;;;12.33;;
20056;SDS011;10189;49.546;7.906;2022-07-23T05:40:07;12.63;;;11.45;;
20056;SDS011;10189;49.546;7.906;2022-07-23T05:42:36;12.93;;;11.73;;
20056;SDS011;10189;49.546;7.906;2022-07-23T05:45:05;14.70;;;12.27;;
20056;SDS011;10189;49.546;7.906;2022-07-23T05:47:41;13.50;;;12.20;;
20056;SDS011;10189;49.546;7.906;2022-07-23T05:50:22;13.75;;;12.38;;
20056;SDS011;10189;49.546;7.906;2022-07-23T05:52:55;12.32;;;11.13;;
20056;SDS011;10189;49.546;7.906;2022-07-23T05:55:45;12.90;;;11.67;;
20056;SDS011;10189;49.546;7.906;2022-07-23T05:58:11;12.68;;;11.35;;
20056;SDS011;10189;49.546;7.906;2022-07-23T06:00:38;15.07;;;12.45;;
20056;SDS011;10189;49.546;7.906;2022-07-23T06:03:04;12.75;;;11.55;;
20056;SDS011;10189;49.546;7.906;2022-07-23T06:05:31;13.70;;;12.27;;
20056;SDS011;10189;49.546;7.906;2022-07-23T06:07:56;13.38;;;11.70;;
20056;SDS011;10189;49.546;7.906;2022-07-23T06:10:24;13.30;;;12.05;;
20056;SDS011;10189;49.546;7.906;2022-07-23T06:12:50;13.70;;;11.48;;
20056;SDS011;10189;49.546;7.906;2022-07-23T06:15:17;12.38;;;11.15;;
20056;SDS011;10189;49.546;7.906;2022-07-23T06:17:43;12.00;;;10.90;;
20056;SDS011;10189;49.546;7.906;2022-07-23T06:20:09;12.55;;;11.45;;
20056;SDS011;10189;49.546;7.906;2022-07-23T06:22:38;11.77;;;10.68;;
20056;SDS011;10189;49.546;7.906;2022-07-23T06:25:04;12.75;;;11.52;;
20056;SDS011;10189;49.546;7.906;2022-07-23T06:27:32;12.88;;;11.68;;
20056;SDS011;10189;49.546;7.906;2022-07-23T06:29:59;13.82;;;12.52;;
20056;SDS011;10189;49.546;7.906;2022-07-23T06:32:24;13.35;;;12.07;;
20056;SDS011;10189;49.546;7.906;2022-07-23T06:34:50;14.40;;;12.20;;
20056;SDS011;10189;49.546;7.906;2022-07-23T06:37:19;14.20;;;12.90;;
20056;SDS011;10189;49.546;7.906;2022-07-23T06:39:46;16.20;;;11.82;;
20056;SDS011;10189;49.546;7.906;2022-07-23T06:42:12;13.02;;;11.70;;
20056;SDS011;10189;49.546;7.906;2022-07-23T06:44:42;12.35;;;11.15;;
20056;SDS011;10189;49.546;7.906;2022-07-23T06:47:08;13.15;;;11.27;;
20056;SDS011;10189;49.546;7.906;2022-07-23T06:49:35;14.02;;;12.02;;
20056;SDS011;10189;49.546;7.906;2022-07-23T06:52:01;13.15;;;11.75;;
20056;SDS011;10189;49.546;7.906;2022-07-23T06:54:27;12.38;;;11.15;;
20056;SDS011;10189;49.546;7.906;2022-07-23T06:56:53;13.70;;;12.32;;
20056;SDS011;10189;49.546;7.906;2022-07-23T06:59:19;12.40;;;11.25;;
20056;SDS011;10189;49.546;7.906;2022-07-23T07:01:45;13.55;;;12.25;;
20056;SDS011;10189;49.546;7.906;2022-07-23T07:04:11;13.25;;;11.95;;
20056;SDS011;10189;49.546;7.906;2022-07-23T07:06:37;13.18;;;11.77;;
20056;SDS011;10189;49.546;7.906;2022-07-23T07:09:03;11.80;;;10.70;;
20056;SDS011;10189;49.546;7.906;2022-07-23T07:11:29;13.15;;;11.85;;
20056;SDS011;10189;49.546;7.906;2022-07-23T07:13:54;12.38;;;11.18;;
20056;SDS011;10189;49.546;7.906;2022-07-23T07:16:20;13.55;;;12.25;;
20056;SDS011;10189;49.546;7.906;2022-07-23T07:18:46;12.90;;;11.73;;
20056;SDS011;10189;49.546;7.906;2022-07-23T07:21:12;12.32;;;11.13;;
20056;SDS011;10189;49.546;7.906;2022-07-23T07:23:38;12.88;;;11.68;;
20056;SDS011;10189;49.546;7.906;2022-07-23T07:26:04;12.85;;;11.48;;
20056;SDS011;10189;49.546;7.906;2022-07-23T07:28:30;14.10;;;12.60;;
20056;SDS011;10189;49.546;7.906;2022-07-23T07:30:56;12.30;;;11.00;;
20056;SDS011;10189;49.546;7.906;2022-07-23T07:33:22;14.88;;;13.07;;
20056;SDS011;10189;49.546;7.906;2022-07-23T07:35:48;12.48;;;11.27;;
20056;SDS011;10189;49.546;7.906;2022-07-23T07:38:14;12.73;;;11.45;;
20056;SDS011;10189;49.546;7.906;2022-07-23T07:40:40;15.35;;;12.25;;
20056;SDS011;10189;49.546;7.906;2022-07-23T07:43:06;11.57;;;10.52;;
20056;SDS011;10189;49.546;7.906;2022-07-23T07:45:31;12.38;;;11.02;;
20056;SDS011;10189;49.546;7.906;2022-07-23T07:47:58;14.50;;;11.85;;
20056;SDS011;10189;49.546;7.906;2022-07-23T07:50:24;12.73;;;11.52;;
20056;SDS011;10189;49.546;7.906;2022-07-23T07:52:50;13.55;;;12.25;;
20056;SDS011;10189;49.546;7.906;2022-07-23T07:55:16;12.55;;;11.25;;
20056;SDS011;10189;49.546;7.906;2022-07-23T07:57:42;12.10;;;10.90;;
20056;SDS011;10189;49.546;7.906;2022-07-23T08:00:08;13.27;;;12.02;;
20056;SDS011;10189;49.546;7.906;2022-07-23T08:02:39;12.75;;;11.45;;
20056;SDS011;10189;49.546;7.906;2022-07-23T08:05:14;13.10;;;11.55;;
20056;SDS011;10189;49.546;7.906;2022-07-23T08:07:45;13.30;;;11.90;;
20056;SDS011;10189;49.546;7.906;2022-07-23T08:10:10;13.10;;;11.90;;
20056;SDS011;10189;49.546;7.906;2022-07-23T08:15:18;12.95;;;11.68;;
20056;SDS011;10189;49.546;7.906;2022-07-23T08:17:46;13.15;;;11.95;;
20056;SDS011;10189;49.546;7.906;2022-07-23T08:20:15;119.30;;;25.05;;
20056;SDS011;10189;49.546;7.906;2022-07-23T08:22:54;12.15;;;10.88;;
20056;SDS011;10189;49.546;7.906;2022-07-23T08:25:37;13.48;;;11.73;;
20056;SDS011;10189;49.546;7.906;2022-07-23T08:28:08;11.60;;;10.48;;
20056;SDS011;10189;49.546;7.906;2022-07-23T08:30:37;13.63;;;10.75;;
20056;SDS011;10189;49.546;7.906;2022-07-23T08:33:06;11.63;;;10.13;;
20056;SDS011;10189;49.546;7.906;2022-07-23T08:35:39;14.35;;;10.57;;
20056;SDS011;10189;49.546;7.906;2022-07-23T08:38:12;11.77;;;10.57;;
20056;SDS011;10189;49.546;7.906;2022-07-23T08:40:43;11.48;;;10.15;;
20056;SDS011;10189;49.546;7.906;2022-07-23T08:43:13;12.07;;;10.80;;
20056;SDS011;10189;49.546;7.906;2022-07-23T08:45:49;11.80;;;10.60;;
20056;SDS011;10189;49.546;7.906;2022-07-23T08:48:24;11.88;;;10.25;;
20056;SDS011;10189;49.546;7.906;2022-07-23T08:50:56;10.98;;;9.88;;
20056;SDS011;10189;49.546;7.906;2022-07-23T08:53:28;10.80;;;9.75;;
20056;SDS011;10189;49.546;7.906;2022-07-23T08:55:57;10.60;;;9.50;;
20056;SDS011;10189;49.546;7.906;2022-07-23T08:58:26;11.90;;;10.10;;
20056;SDS011;10189;49.546;7.906;2022-07-23T09:00:53;10.98;;;9.98;;
20056;SDS011;10189;49.546;7.906;2022-07-23T09:03:20;11.00;;;9.73;;
20056;SDS011;10189;49.546;7.906;2022-07-23T09:05:50;11.45;;;10.35;;
20056;SDS011;10189;49.546;7.906;2022-07-23T09:08:19;13.30;;;10.00;;
20056;SDS011;10189;49.546;7.906;2022-07-23T09:11:09;12.20;;;10.75;;
20056;SDS011;10189;49.546;7.906;2022-07-23T09:13:46;11.15;;;10.23;;
20056;SDS011;10189;49.546;7.906;2022-07-23T09:21:22;11.00;;;9.90;;
20056;SDS011;10189;49.546;7.906;2022-07-23T09:24:03;11.52;;;10.02;;
20056;SDS011;10189;49.546;7.906;2022-07-23T09:26:31;11.45;;;10.35;;
20056;SDS011;10189;49.546;7.906;2022-07-23T09:29:08;11.02;;;10.02;;
20056;SDS011;10189;49.546;7.906;2022-07-23T09:32:00;11.23;;;10.13;;
20056;SDS011;10189;49.546;7.906;2022-07-23T09:34:31;11.15;;;9.95;;
20056;SDS011;10189;49.546;7.906;2022-07-23T09:37:11;12.27;;;11.07;;
20056;SDS011;10189;49.546;7.906;2022-07-23T09:39:43;12.45;;;11.35;;
20056;SDS011;10189;49.546;7.906;2022-07-23T09:42:19;11.40;;;10.30;;
20056;SDS011;10189;49.546;7.906;2022-07-23T09:44:49;12.35;;;11.18;;
20056;SDS011;10189;49.546;7.906;2022-07-23T09:47:17;11.45;;;10.45;;
20056;SDS011;10189;49.546;7.906;2022-07-23T09:50:02;11.75;;;10.65;;
20056;SDS011;10189;49.546;7.906;2022-07-23T09:52:34;11.43;;;10.23;;
20056;SDS011;10189;49.546;7.906;2022-07-23T09:55:21;11.52;;;10.32;;
20056;SDS011;10189;49.546;7.906;2022-07-23T09:58:07;11.75;;;10.65;;
20056;SDS011;10189;49.546;7.906;2022-07-23T10:00:39;12.85;;;10.70;;
20056;SDS011;10189;49.546;7.906;2022-07-23T10:03:07;10.70;;;9.70;;
20056;SDS011;10189;49.546;7.906;2022-07-23T10:05:39;10.45;;;9.45;;
20056;SDS011;10189;49.546;7.906;2022-07-23T10:08:27;10.60;;;9.57;;
20056;SDS011;10189;49.546;7.906;2022-07-23T10:11:15;13.20;;;10.48;;
20056;SDS011;10189;49.546;7.906;2022-07-23T10:13:50;10.75;;;9.70;;
20056;SDS011;10189;49.546;7.906;2022-07-23T10:16:37;10.93;;;9.77;;
20056;SDS011;10189;49.546;7.906;2022-07-23T10:19:04;10.77;;;9.77;;
20056;SDS011;10189;49.546;7.906;2022-07-23T10:21:50;11.05;;;10.05;;
20056;SDS011;10189;49.546;7.906;2022-07-23T10:27:49;11.55;;;10.45;;
20056;SDS011;10189;49.546;7.906;2022-07-23T10:36:44;11.68;;;10.52;;
20056;SDS011;10189;49.546;7.906;2022-07-23T10:39:19;10.88;;;9.77;;
20056;SDS011;10189;49.546;7.906;2022-07-23T10:42:12;12.30;;;10.18;;
20056;SDS011;10189;49.546;7.906;2022-07-23T10:47:12;10.82;;;9.82;;
20056;SDS011;10189;49.546;7.906;2022-07-23T10:50:17;9.77;;;8.80;;
20056;SDS011;10189;49.546;7.906;2022-07-23T10:52:55;9.77;;;8.93;;
20056;SDS011;10189;49.546;7.906;2022-07-23T10:57:57;10.77;;;9.68;;
20056;SDS011;10189;49.546;7.906;2022-07-23T11:00:24;11.07;;;9.63;;
20056;SDS011;10189;49.546;7.906;2022-07-23T11:02:55;10.45;;;9.50;;
20056;SDS011;10189;49.546;7.906;2022-07-23T11:05:45;11.30;;;9.25;;
20056;SDS011;10189;49.546;7.906;2022-07-23T11:13:56;9.93;;;9.02;;
20056;SDS011;10189;49.546;7.906;2022-07-23T11:16:15;10.57;;;9.57;;
20056;SDS011;10189;49.546;7.906;2022-07-23T11:18:56;10.10;;;9.30;;
20056;SDS011;10189;49.546;7.906;2022-07-23T11:32:07;10.90;;;9.80;;
20056;SDS011;10189;49.546;7.906;2022-07-23T11:34:49;9.10;;;8.18;;
20056;SDS011;10189;49.546;7.906;2022-07-23T11:40:03;10.60;;;9.25;;
20056;SDS011;10189;49.546;7.906;2022-07-23T11:42:39;17.67;;;15.93;;
20056;SDS011;10189;49.546;7.906;2022-07-23T11:45:36;10.02;;;9.10;;
20056;SDS011;10189;49.546;7.906;2022-07-23T11:48:06;9.90;;;8.90;;
20056;SDS011;10189;49.546;7.906;2022-07-23T11:50:40;9.63;;;8.75;;
20056;SDS011;10189;49.546;7.906;2022-07-23T11:53:06;10.13;;;9.07;;
20056;SDS011;10189;49.546;7.906;2022-07-23T11:55:32;9.18;;;8.38;;
20056;SDS011;10189;49.546;7.906;2022-07-23T11:57:58;9.43;;;8.52;;
20056;SDS011;10189;49.546;7.906;2022-07-23T12:00:25;9.68;;;8.70;;
20056;SDS011;10189;49.546;7.906;2022-07-23T12:02:57;10.53;;;9.43;;
20056;SDS011;10189;49.546;7.906;2022-07-23T12:05:27;9.85;;;8.95;;
20056;SDS011;10189;49.546;7.906;2022-07-23T12:08:00;10.18;;;9.20;;
20056;SDS011;10189;49.546;7.906;2022-07-23T12:10:37;10.13;;;9.20;;
20056;SDS011;10189;49.546;7.906;2022-07-23T12:13:10;8.60;;;7.90;;
20056;SDS011;10189;49.546;7.906;2022-07-23T12:18:09;9.32;;;8.52;;
20056;SDS011;10189;49.546;7.906;2022-07-23T12:20:42;9.68;;;8.65;;
20056;SDS011;10189;49.546;7.906;2022-07-23T12:23:12;9.27;;;8.38;;
20056;SDS011;10189;49.546;7.906;2022-07-23T12:25:43;9.23;;;8.07;;
20056;SDS011;10189;49.546;7.906;2022-07-23T12:30:45;9.45;;;8.15;;
20056;SDS011;10189;49.546;7.906;2022-07-23T12:33:33;9.23;;;8.30;;
20056;SDS011;10189;49.546;7.906;2022-07-23T12:36:03;9.02;;;8.23;;
20056;SDS011;10189;49.546;7.906;2022-07-23T12:38:37;9.10;;;8.20;;
20056;SDS011;10189;49.546;7.906;2022-07-23T12:41:07;9.35;;;8.32;;
20056;SDS011;10189;49.546;7.906;2022-07-23T12:43:36;9.60;;;8.70;;
20056;SDS011;10189;49.546;7.906;2022-07-23T12:46:11;10.48;;;8.00;;
20056;SDS011;10189;49.546;7.906;2022-07-23T12:51:17;8.82;;;8.02;;
20056;SDS011;10189;49.546;7.906;2022-07-23T12:53:45;9.25;;;8.35;;
20056;SDS011;10189;49.546;7.906;2022-07-23T12:56:16;8.90;;;8.07;;
20056;SDS011;10189;49.546;7.906;2022-07-23T12:58:55;9.15;;;8.32;;
20056;SDS011;10189;49.546;7.906;2022-07-23T13:01:29;9.25;;;8.40;;
20056;SDS011;10189;49.546;7.906;2022-07-23T13:04:04;9.30;;;8.35;;
20056;SDS011;10189;49.546;7.906;2022-07-23T13:09:11;8.63;;;7.93;;
20056;SDS011;10189;49.546;7.906;2022-07-23T13:11:46;9.18;;;8.27;;
20056;SDS011;10189;49.546;7.906;2022-07-23T13:14:15;8.98;;;8.02;;
20056;SDS011;10189;49.546;7.906;2022-07-23T13:16:43;8.93;;;8.02;;
20056;SDS011;10189;49.546;7.906;2022-07-23T13:19:10;8.52;;;7.60;;
20056;SDS011;10189;49.546;7.906;2022-07-23T13:21:40;9.43;;;8.52;;
20056;SDS011;10189;49.546;7.906;2022-07-23T13:24:08;9.45;;;8.55;;
20056;SDS011;10189;49.546;7.906;2022-07-23T13:26:36;8.98;;;8.18;;
20056;SDS011;10189;49.546;7.906;2022-07-23T13:29:06;9.50;;;8.50;;
20056;SDS011;10189;49.546;7.906;2022-07-23T13:31:33;9.35;;;8.48;;
20056;SDS011;10189;49.546;7.906;2022-07-23T13:34:01;9.55;;;8.10;;
20056;SDS011;10189;49.546;7.906;2022-07-23T13:36:27;8.30;;;7.60;;
20056;SDS011;10189;49.546;7.906;2022-07-23T13:38:53;8.77;;;7.95;;
20056;SDS011;10189;49.546;7.906;2022-07-23T13:41:19;8.55;;;7.75;;
20056;SDS011;10189;49.546;7.906;2022-07-23T13:43:45;8.75;;;7.85;;
20056;SDS011;10189;49.546;7.906;2022-07-23T13:46:11;8.85;;;8.05;;
20056;SDS011;10189;49.546;7.906;2022-07-23T13:48:37;8.88;;;8.13;;
20056;SDS011;10189;49.546;7.906;2022-07-23T13:51:03;9.05;;;8.27;;
20056;SDS011;10189;49.546;7.906;2022-07-23T13:53:29;8.93;;;8.13;;
20056;SDS011;10189;49.546;7.906;2022-07-23T13:55:55;8.48;;;7.80;;
20056;SDS011;10189;49.546;7.906;2022-07-23T13:58:22;8.43;;;7.63;;
20056;SDS011;10189;49.546;7.906;2022-07-23T14:00:49;9.13;;;8.15;;
20056;SDS011;10189;49.546;7.906;2022-07-23T14:03:18;8.85;;;8.05;;
20056;SDS011;10189;49.546;7.906;2022-07-23T14:05:48;8.70;;;7.90;;
20056;SDS011;10189;49.546;7.906;2022-07-23T14:08:15;8.98;;;8.00;;
20056;SDS011;10189;49.546;7.906;2022-07-23T14:10:40;8.25;;;7.53;;
20056;SDS011;10189;49.546;7.906;2022-07-23T14:13:06;9.18;;;8.27;;
20056;SDS011;10189;49.546;7.906;2022-07-23T14:15:32;8.90;;;7.80;;
20056;SDS011;10189;49.546;7.906;2022-07-23T14:17:58;8.98;;;8.10;;
20056;SDS011;10189;49.546;7.906;2022-07-23T14:20:24;8.20;;;7.50;;
20056;SDS011;10189;49.546;7.906;2022-07-23T14:22:51;8.70;;;7.90;;
20056;SDS011;10189;49.546;7.906;2022-07-23T14:25:17;8.90;;;8.20;;
20056;SDS011;10189;49.546;7.906;2022-07-23T14:27:44;8.63;;;7.82;;
20056;SDS011;10189;49.546;7.906;2022-07-23T14:30:10;8.35;;;7.55;;
20056;SDS011;10189;49.546;7.906;2022-07-23T14:32:37;10.25;;;7.45;;
20056;SDS011;10189;49.546;7.906;2022-07-23T14:35:04;8.20;;;7.50;;
20056;SDS011;10189;49.546;7.906;2022-07-23T14:37:31;8.70;;;7.90;;
20056;SDS011;10189;49.546;7.906;2022-07-23T14:39:57;8.93;;;8.00;;
20056;SDS011;10189;49.546;7.906;2022-07-23T14:42:24;8.63;;;7.82;;
20056;SDS011;10189;49.546;7.906;2022-07-23T14:44:50;8.50;;;7.70;;
20056;SDS011;10189;49.546;7.906;2022-07-23T14:47:16;8.50;;;7.65;;
20056;SDS011;10189;49.546;7.906;2022-07-23T14:49:42;7.95;;;7.15;;
20056;SDS011;10189;49.546;7.906;2022-07-23T14:52:08;8.73;;;7.50;;
20056;SDS011;10189;49.546;7.906;2022-07-23T14:54:34;8.73;;;7.82;;
20056;SDS011;10189;49.546;7.906;2022-07-23T14:57:01;9.43;;;7.35;;
20056;SDS011;10189;49.546;7.906;2022-07-23T14:59:29;8.05;;;7.30;;
20056;SDS011;10189;49.546;7.906;2022-07-23T15:01:56;8.85;;;7.97;;
20056;SDS011;10189;49.546;7.906;2022-07-23T15:04:23;8.90;;;8.00;;
20056;SDS011;10189;49.546;7.906;2022-07-23T15:06:49;9.48;;;7.95;;
20056;SDS011;10189;49.546;7.906;2022-07-23T15:09:16;8.30;;;7.55;;
20056;SDS011;10189;49.546;7.906;2022-07-23T15:11:42;8.70;;;7.65;;
20056;SDS011;10189;49.546;7.906;2022-07-23T15:14:08;8.32;;;7.53;;
20056;SDS011;10189;49.546;7.906;2022-07-23T15:16:34;8.18;;;7.38;;
20056;SDS011;10189;49.546;7.906;2022-07-23T15:19:01;8.10;;;7.40;;
20056;SDS011;10189;49.546;7.906;2022-07-23T15:21:28;9.52;;;8.60;;
20056;SDS011;10189;49.546;7.906;2022-07-23T15:23:55;7.95;;;7.22;;
20056;SDS011;10189;49.546;7.906;2022-07-23T15:26:26;8.43;;;7.70;;
20056;SDS011;10189;49.546;7.906;2022-07-23T15:28:53;8.88;;;7.97;;
20056;SDS011;10189;49.546;7.906;2022-07-23T15:31:20;8.30;;;7.60;;